Details for Korean Air at RKSI




Go Back


Latest METAR
Local Time

RKSI 212300Z 13007KT 3500 BR FEW004 SCT180 20/15 Q1010 NOSIG

22/06/2018, 08:34:04

Description
Results
Korean Air Logo
Number of Pilots based at RKSI
0 Pilots Based here
Number of Korean Air Flights Departed from RKSI
1 Flights Departed
Number of Korean Air Flights Arrived at RKSI
0 Flights Arrived
Number of Korean Air Schedules Departing from RKSI
134 Schedules
Number of Korean Air Schedules Arriving at RKSI
133 Schedules
Number of Korean Air Schedules Departing from RKSI availible today
111 Schedules Today
Number of Korean Air Schedules Arriving at RKSI availible today
115 Schedules Today
Average Landing Rate at RKSI
-355 fpm
Korean Air Average Landing Rate at RKSI
0 fpm
Total Fuel Purchased at RKSI by Korean Air
11,977.56 kgs / 26,405.73 lbs

Pilots Based at RKSI


Pilot ID
Pilot Name
Pilot Rank
No. of Flights
No. of Flying Hours
There are no pilots assigned to this hub!   Will you be the first?
Content